Time;durP1;ratioP1;P1;durP2;ratioP2;P2;SDS_P1;SDS_P2;PMS_P1;PMS_P2;Temp;Humidity;BMP_temperature;BMP_pressure;BME280_temperature;BME280_humidity;BME280_pressure;Samples;Min_cycle;Max_cycle;Signal;HPM_P1;HPM_P2
2023/07/22 00:00:06;;;;;;;;;;;15.10;2.70;;;;;;5049479;28;19983;-82
2023/07/22 00:02:32;;;;;;;;;;;15.10;99.90;;;;;;5034311;28;19933;-82
2023/07/22 00:04:58;;;;;;;;;;;15.10;99.90;;;;;;5037139;28;19929;-83
2023/07/22 00:07:24;;;;;;;;;;;15.10;1.00;;;;;;5032692;28;19929;-82
2023/07/22 00:09:50;;;;;;;;;;;15.10;1.00;;;;;;5037864;28;19974;-81
2023/07/22 00:12:15;;;;;;;;;;;15.10;99.90;;;;;;5053250;28;19932;-82
2023/07/22 00:14:41;;;;;;;;;;;15.00;99.90;;;;;;5037276;28;19994;-81
2023/07/22 00:17:08;;;;;;;;;;;15.00;99.90;;;;;;5038809;28;20434;-82
2023/07/22 00:19:34;;;;;;;;;;;15.00;1.00;;;;;;5019743;28;19944;-81
2023/07/22 00:22:05;;;;;;;;;;;15.00;99.90;;;;;;5038308;28;20345;-81
2023/07/22 00:24:31;;;;;;;;;;;15.00;1.00;;;;;;5037038;28;19925;-82
2023/07/22 00:26:58;;;;;;;;;;;15.00;27.10;;;;;;5039198;28;20433;-82
2023/07/22 00:29:24;;;;;;;;;;;15.00;1.00;;;;;;5037022;28;20364;-82
2023/07/22 00:31:49;;;;;;;;;;;15.00;99.90;;;;;;5030889;28;19924;-83
2023/07/22 00:34:15;;;;;;;;;;;15.00;1.00;;;;;;5035860;28;20299;-81
2023/07/22 00:36:40;;;;;;;;;;;15.00;99.90;;;;;;5036241;28;19928;-81
2023/07/22 00:39:06;;;;;;;;;;;14.90;1.00;;;;;;5034119;28;21498;-81
2023/07/22 00:41:32;;;;;;;;;;;14.90;1.00;;;;;;5033237;28;19944;-80
2023/07/22 00:43:57;;;;;;;;;;;14.90;54.30;;;;;;5032268;28;19996;-81
2023/07/22 00:46:24;;;;;;;;;;;14.90;99.90;;;;;;5033291;28;19964;-81
2023/07/22 00:48:50;;;;;;;;;;;14.90;99.90;;;;;;5033223;28;20015;-81
2023/07/22 00:51:16;;;;;;;;;;;14.90;1.00;;;;;;5000926;28;19928;-79
2023/07/22 00:53:42;;;;;;;;;;;14.80;13.10;;;;;;5033255;28;19939;-81
2023/07/22 00:56:07;;;;;;;;;;;14.80;43.70;;;;;;5032296;28;19932;-82
2023/07/22 00:58:33;;;;;;;;;;;14.80;1.00;;;;;;5032902;28;19928;-81
2023/07/22 01:00:59;;;;;;;;;;;14.90;99.90;;;;;;5034225;28;19924;-81
2023/07/22 01:03:25;;;;;;;;;;;14.80;99.90;;;;;;5032938;28;20300;-82
2023/07/22 01:05:52;;;;;;;;;;;14.90;94.90;;;;;;5035770;28;19932;-80
2023/07/22 01:08:18;;;;;;;;;;;14.90;99.90;;;;;;5005200;28;19929;-82
2023/07/22 01:10:43;;;;;;;;;;;14.90;1.00;;;;;;5035008;28;19925;-82
2023/07/22 01:13:09;;;;;;;;;;;14.90;28.50;;;;;;5036419;28;19932;-82
2023/07/22 01:15:35;;;;;;;;;;;14.90;99.90;;;;;;5033196;28;20033;-82
2023/07/22 01:18:02;;;;;;;;;;;14.90;99.90;;;;;;5017824;28;20416;-83
2023/07/22 01:20:31;;;;;;;;;;;14.90;99.90;;;;;;5034091;28;19926;-82
2023/07/22 01:22:57;;;;;;;;;;;15.00;65.90;;;;;;5032758;28;19932;-83
2023/07/22 01:25:23;;;;;;;;;;;15.00;56.30;;;;;;5035329;28;19954;-82
2023/07/22 01:27:49;;;;;;;;;;;15.00;1.00;;;;;;5047891;28;19936;-82
2023/07/22 01:30:15;;;;;;;;;;;15.10;68.60;;;;;;5001065;28;20013;-81
2023/07/22 01:32:40;;;;;;;;;;;15.10;39.30;;;;;;5033554;28;19967;-83
2023/07/22 01:35:10;;;;;;;;;;;15.10;99.90;;;;;;5033776;28;19934;-83
2023/07/22 01:37:36;;;;;;;;;;;15.20;99.90;;;;;;5031704;28;19935;-81
2023/07/22 01:40:11;;;;;;;;;;;15.20;1.00;;;;;;5031852;28;20446;-81
2023/07/22 01:42:38;;;;;;;;;;;15.20;25.00;;;;;;5017293;28;19929;-81
2023/07/22 01:45:06;;;;;;;;;;;15.20;99.90;;;;;;5035520;28;19933;-81
2023/07/22 01:47:31;;;;;;;;;;;14.20;1.00;;;;;;5033396;28;20494;-81
2023/07/22 01:49:57;;;;;;;;;;;15.20;99.90;;;;;;5033448;28;19932;-82
2023/07/22 01:52:23;;;;;;;;;;;15.20;10.40;;;;;;5033162;28;19939;-81
2023/07/22 01:54:48;;;;;;;;;;;15.10;1.00;;;;;;5033480;28;20354;-80
2023/07/22 01:57:14;;;;;;;;;;;15.20;1.00;;;;;;5031438;28;19959;-80
2023/07/22 01:59:40;;;;;;;;;;;15.10;1.00;;;;;;5034759;28;19929;-81
2023/07/22 02:02:05;;;;;;;;;;;15.10;99.90;;;;;;5031441;28;20039;-82
2023/07/22 02:04:31;;;;;;;;;;;15.10;44.90;;;;;;5031621;28;19932;-81
2023/07/22 02:06:56;;;;;;;;;;;15.10;99.90;;;;;;5035549;28;20376;-82
2023/07/22 02:09:22;;;;;;;;;;;15.10;99.90;;;;;;5036677;28;21354;-81
2023/07/22 02:11:48;;;;;;;;;;;15.10;1.00;;;;;;5037888;28;19935;-82
2023/07/22 02:14:13;;;;;;;;;;;15.10;22.20;;;;;;5038688;28;19944;-81
2023/07/22 02:16:39;;;;;;;;;;;14.10;1.00;;;;;;5039020;28;19932;-83
2023/07/22 02:19:05;;;;;;;;;;;15.10;62.90;;;;;;5041432;28;20307;-82
2023/07/22 02:21:30;;;;;;;;;;;15.10;99.90;;;;;;5043693;28;20086;-82
2023/07/22 02:23:56;;;;;;;;;;;15.10;27.70;;;;;;5024949;28;19929;-81
2023/07/22 02:26:22;;;;;;;;;;;15.10;33.70;;;;;;5021290;28;19928;-82
2023/07/22 02:28:48;;;;;;;;;;;15.10;99.90;;;;;;5042072;28;19935;-83
2023/07/22 02:31:13;;;;;;;;;;;15.20;99.90;;;;;;5042448;28;20300;-82
2023/07/22 02:33:39;;;;;;;;;;;15.20;1.00;;;;;;5040800;28;20500;-83
2023/07/22 02:36:05;;;;;;;;;;;15.20;1.00;;;;;;5036888;28;19975;-80
2023/07/22 02:38:30;;;;;;;;;;;15.20;99.90;;;;;;5036643;28;19925;-82
2023/07/22 02:41:03;;;;;;;;;;;15.20;97.10;;;;;;5038450;28;19933;-82
2023/07/22 02:43:28;;;;;;;;;;;15.20;99.90;;;;;;5037678;28;21423;-82
2023/07/22 02:45:54;;;;;;;;;;;15.20;99.90;;;;;;5025485;28;19951;-81
2023/07/22 02:48:20;;;;;;;;;;;15.20;1.00;;;;;;5039323;28;19929;-82
2023/07/22 02:50:46;;;;;;;;;;;15.20;99.90;;;;;;5037436;28;19948;-83
2023/07/22 02:53:11;;;;;;;;;;;15.20;1.00;;;;;;5019891;28;19925;-82
2023/07/22 02:55:37;;;;;;;;;;;15.20;1.00;;;;;;5036606;28;19925;-83
2023/07/22 02:58:02;;;;;;;;;;;15.20;1.00;;;;;;5035860;28;19980;-80
2023/07/22 03:00:28;;;;;;;;;;;15.20;99.90;;;;;;5037035;28;19936;-81
2023/07/22 03:03:00;;;;;;;;;;;15.20;1.00;;;;;;5025547;28;19943;-81
2023/07/22 03:05:27;;;;;;;;;;;15.20;99.90;;;;;;5040116;28;19924;-83
2023/07/22 03:07:57;;;;;;;;;;;15.30;99.90;;;;;;5039474;28;19939;-82
2023/07/22 03:10:23;;;;;;;;;;;15.30;1.00;;;;;;5036836;28;19933;-82
2023/07/22 03:12:48;;;;;;;;;;;15.30;1.00;;;;;;5022713;28;19952;-83
2023/07/22 03:15:14;;;;;;;;;;;15.30;1.00;;;;;;5041786;28;19929;-81
2023/07/22 03:17:41;;;;;;;;;;;15.30;99.90;;;;;;5040297;28;19972;-82
2023/07/22 03:20:14;;;;;;;;;;;15.30;1.00;;;;;;5043174;28;19929;-82
2023/07/22 03:22:40;;;;;;;;;;;15.30;1.00;;;;;;5022670;28;19955;-82
2023/07/22 03:25:09;;;;;;;;;;;15.30;45.40;;;;;;5035928;28;20025;-81
2023/07/22 03:27:35;;;;;;;;;;;15.30;67.80;;;;;;5036029;28;19925;-82
2023/07/22 03:30:01;;;;;;;;;;;15.30;99.90;;;;;;5023367;28;19991;-81
2023/07/22 03:32:26;;;;;;;;;;;15.30;99.90;;;;;;5036330;28;19976;-81
2023/07/22 03:34:52;;;;;;;;;;;15.30;99.90;;;;;;5035353;28;19961;-82
2023/07/22 03:37:19;;;;;;;;;;;15.30;99.90;;;;;;5023350;28;19929;-81
2023/07/22 03:39:45;;;;;;;;;;;15.30;99.90;;;;;;5036830;28;19994;-80
2023/07/22 03:42:10;;;;;;;;;;;15.30;99.90;;;;;;5034401;28;19937;-82
2023/07/22 03:44:36;;;;;;;;;;;15.20;99.90;;;;;;5032875;28;19933;-81
2023/07/22 03:47:03;;;;;;;;;;;15.20;99.90;;;;;;5035210;28;20256;-81
2023/07/22 03:49:28;;;;;;;;;;;15.30;99.90;;;;;;5035772;28;19929;-81
2023/07/22 03:51:54;;;;;;;;;;;15.30;99.90;;;;;;5019229;28;19932;-82
2023/07/22 03:54:19;;;;;;;;;;;15.30;99.90;;;;;;5036395;28;20378;-82
2023/07/22 03:56:45;;;;;;;;;;;15.20;1.00;;;;;;5036702;28;19925;-81
2023/07/22 03:59:11;;;;;;;;;;;15.20;1.00;;;;;;5035249;28;19932;-81
2023/07/22 04:01:36;;;;;;;;;;;15.20;1.00;;;;;;5034552;28;19974;-80
2023/07/22 04:04:02;;;;;;;;;;;15.20;1.00;;;;;;5022512;28;19933;-81
2023/07/22 04:06:27;;;;;;;;;;;15.20;1.00;;;;;;5039085;28;20309;-80
2023/07/22 04:08:53;;;;;;;;;;;15.20;1.00;;;;;;5020676;28;19925;-81
2023/07/22 04:11:24;;;;;;;;;;;15.20;1.00;;;;;;5030464;28;20291;-81
2023/07/22 04:13:50;;;;;;;;;;;15.20;1.00;;;;;;5047340;28;19929;-81
2023/07/22 04:16:15;;;;;;;;;;;15.10;1.00;;;;;;5037481;28;19929;-81
2023/07/22 04:18:41;;;;;;;;;;;15.10;1.00;;;;;;5044387;28;19936;-82
2023/07/22 04:21:07;;;;;;;;;;;15.10;1.00;;;;;;5048975;28;19940;-81
2023/07/22 04:23:33;;;;;;;;;;;15.10;1.00;;;;;;5029436;28;20075;-82
2023/07/22 04:26:01;;;;;;;;;;;15.10;1.00;;;;;;5043016;28;20015;-81
2023/07/22 04:28:27;;;;;;;;;;;15.10;1.00;;;;;;5027267;28;19932;-81
2023/07/22 04:30:57;;;;;;;;;;;15.00;1.00;;;;;;5038952;28;19929;-81
2023/07/22 04:33:23;;;;;;;;;;;15.00;1.00;;;;;;5039381;28;20050;-82
2023/07/22 04:35:49;;;;;;;;;;;15.00;1.00;;;;;;5038132;28;19925;-81
2023/07/22 04:38:15;;;;;;;;;;;15.00;1.00;;;;;;5032271;28;19974;-81
2023/07/22 04:40:43;;;;;;;;;;;15.00;1.00;;;;;;5016309;28;19925;-82
2023/07/22 04:43:09;;;;;;;;;;;15.00;1.00;;;;;;5034595;28;19929;-82
2023/07/22 04:45:35;;;;;;;;;;;15.00;1.00;;;;;;5035241;28;20456;-82
2023/07/22 04:48:01;;;;;;;;;;;15.00;1.00;;;;;;5015632;28;19939;-82
2023/07/22 04:50:27;;;;;;;;;;;15.00;1.00;;;;;;5031857;28;20781;-82
2023/07/22 04:52:53;;;;;;;;;;;15.00;1.00;;;;;;5033937;28;20138;-80
2023/07/22 04:55:19;;;;;;;;;;;15.00;1.00;;;;;;5016151;28;19933;-78
2023/07/22 04:57:47;;;;;;;;;;;15.00;1.00;;;;;;5033330;28;19936;-77
2023/07/22 05:00:14;;;;;;;;;;;15.00;1.00;;;;;;5033018;28;19928;-77
2023/07/22 05:02:40;;;;;;;;;;;15.00;1.00;;;;;;5027059;28;20238;-79
2023/07/22 05:05:06;;;;;;;;;;;15.00;1.00;;;;;;5027481;28;19968;-79
2023/07/22 05:07:32;;;;;;;;;;;15.00;1.00;;;;;;5047748;28;20444;-80
2023/07/22 05:10:04;;;;;;;;;;;15.10;1.00;;;;;;5017700;28;19929;-79
2023/07/22 05:12:30;;;;;;;;;;;15.10;1.00;;;;;;5031774;28;19935;-79
2023/07/22 05:14:55;;;;;;;;;;;15.20;1.00;;;;;;5031230;28;20018;-79
2023/07/22 05:17:21;;;;;;;;;;;15.20;1.00;;;;;;5030962;28;19927;-79
2023/07/22 05:19:48;;;;;;;;;;;15.20;1.00;;;;;;5032254;28;20380;-79
2023/07/22 05:22:17;;;;;;;;;;;15.20;1.00;;;;;;5030994;28;19935;-80
2023/07/22 05:24:42;;;;;;;;;;;15.30;1.00;;;;;;5034400;28;19925;-79
2023/07/22 05:27:08;;;;;;;;;;;15.30;1.00;;;;;;5019476;28;19982;-81
2023/07/22 05:29:33;;;;;;;;;;;15.30;1.00;;;;;;5031584;28;20295;-81
2023/07/22 05:31:59;;;;;;;;;;;15.40;1.00;;;;;;5017138;28;19928;-79
2023/07/22 05:34:30;;;;;;;;;;;15.40;1.00;;;;;;5020263;28;19932;-81
2023/07/22 05:36:56;;;;;;;;;;;15.50;1.00;;;;;;5015288;28;20585;-79
2023/07/22 05:39:22;;;;;;;;;;;15.60;1.00;;;;;;5019661;28;19932;-80
2023/07/22 05:41:47;;;;;;;;;;;15.60;1.00;;;;;;5014011;28;20636;-80
2023/07/22 05:44:13;;;;;;;;;;;15.70;1.00;;;;;;5015112;28;19960;-80
2023/07/22 05:46:39;;;;;;;;;;;15.70;1.00;;;;;;5031018;28;20540;-80
2023/07/22 05:49:05;;;;;;;;;;;15.80;1.00;;;;;;5034697;28;20518;-79
2023/07/22 05:51:30;;;;;;;;;;;15.80;1.00;;;;;;5040972;28;19925;-81
2023/07/22 05:53:57;;;;;;;;;;;15.80;1.00;;;;;;5018391;28;19933;-81
2023/07/22 05:56:23;;;;;;;;;;;15.90;1.00;;;;;;5020373;28;19983;-80
2023/07/22 05:58:48;;;;;;;;;;;15.90;1.00;;;;;;5033408;28;20026;-77
2023/07/22 06:01:14;;;;;;;;;;;16.00;1.00;;;;;;5018775;28;20011;-79
2023/07/22 06:03:40;;;;;;;;;;;16.00;1.00;;;;;;5036002;28;19928;-80
2023/07/22 06:06:06;;;;;;;;;;;16.10;1.00;;;;;;5036423;28;19933;-80
2023/07/22 06:08:31;;;;;;;;;;;16.10;1.00;;;;;;5017804;28;19925;-76
2023/07/22 06:10:57;;;;;;;;;;;16.10;1.00;;;;;;5033836;28;19933;-79
2023/07/22 06:13:23;;;;;;;;;;;16.10;1.00;;;;;;5005296;28;20015;-78
2023/07/22 06:15:48;;;;;;;;;;;16.20;1.00;;;;;;5018367;28;19955;-76
2023/07/22 06:18:14;;;;;;;;;;;16.20;1.00;;;;;;5033849;28;21398;-76
2023/07/22 06:20:39;;;;;;;;;;;16.20;1.00;;;;;;5034310;28;19979;-76
2023/07/22 06:23:06;;;;;;;;;;;16.20;3.00;;;;;;5033940;28;19929;-75
2023/07/22 06:25:31;;;;;;;;;;;16.30;1.30;;;;;;5037752;28;20495;-76
2023/07/22 06:27:57;;;;;;;;;;;16.40;2.80;;;;;;5022692;28;19925;-72
2023/07/22 06:30:22;;;;;;;;;;;16.40;2.90;;;;;;5040418;28;20010;-78
2023/07/22 06:32:48;;;;;;;;;;;16.50;4.50;;;;;;5021734;28;21376;-75
2023/07/22 06:35:14;;;;;;;;;;;16.50;4.60;;;;;;5034140;28;19932;-77
2023/07/22 06:37:40;;;;;;;;;;;16.50;5.40;;;;;;5017274;28;20621;-78
2023/07/22 06:40:06;;;;;;;;;;;16.50;1.00;;;;;;5035715;28;19936;-76
2023/07/22 06:42:32;;;;;;;;;;;16.50;1.00;;;;;;5035049;28;19928;-79
2023/07/22 06:44:57;;;;;;;;;;;16.50;1.00;;;;;;5016730;28;20063;-76
2023/07/22 06:47:23;;;;;;;;;;;16.70;1.00;;;;;;5034543;28;19989;-82
2023/07/22 06:49:50;;;;;;;;;;;16.80;1.00;;;;;;5033750;28;20224;-78
2023/07/22 06:52:16;;;;;;;;;;;16.80;1.00;;;;;;5048457;28;19978;-80
2023/07/22 06:54:45;;;;;;;;;;;16.90;1.00;;;;;;5035810;28;19935;-78
2023/07/22 06:57:11;;;;;;;;;;;16.80;1.00;;;;;;5035943;28;20029;-82
2023/07/22 06:59:37;;;;;;;;;;;16.90;1.00;;;;;;5034202;28;20875;-84
2023/07/22 07:02:04;;;;;;;;;;;16.90;1.00;;;;;;5040021;28;19955;-82
2023/07/22 07:04:30;;;;;;;;;;;16.90;1.00;;;;;;5016794;28;20419;-81
2023/07/22 07:06:56;;;;;;;;;;;17.00;1.00;;;;;;5032412;28;19936;-81
2023/07/22 07:09:21;;;;;;;;;;;17.00;1.00;;;;;;5051192;28;19925;-76
2023/07/22 07:11:47;;;;;;;;;;;17.00;1.00;;;;;;5034032;28;19939;-79
2023/07/22 07:14:13;;;;;;;;;;;17.10;1.00;;;;;;5034513;28;19928;-81
2023/07/22 07:16:38;;;;;;;;;;;17.20;1.00;;;;;;5018903;28;19936;-79
2023/07/22 07:19:04;;;;;;;;;;;17.20;1.00;;;;;;5034656;28;20201;-79
2023/07/22 07:21:30;;;;;;;;;;;17.30;1.00;;;;;;5039123;28;19965;-79
2023/07/22 07:23:55;;;;;;;;;;;17.40;1.00;;;;;;5035799;28;20199;-77
2023/07/22 07:26:21;;;;;;;;;;;17.40;1.00;;;;;;5005951;28;20019;-76
2023/07/22 07:28:47;;;;;;;;;;;17.50;1.00;;;;;;5031466;28;20239;-77
2023/07/22 07:31:13;;;;;;;;;;;17.60;1.00;;;;;;5035510;28;19925;-79
2023/07/22 07:33:39;;;;;;;;;;;17.70;99.90;;;;;;5035429;28;19932;-78
2023/07/22 07:36:04;;;;;;;;;;;17.70;99.90;;;;;;5036473;28;19925;-79
2023/07/22 07:38:30;;;;;;;;;;;17.70;99.90;;;;;;5032732;28;20414;-76
2023/07/22 07:40:56;;;;;;;;;;;17.70;99.90;;;;;;5032786;28;19982;-76
2023/07/22 07:43:22;;;;;;;;;;;17.70;99.90;;;;;;5035121;28;19993;-76
2023/07/22 07:46:12;;;;;;;;;;;17.70;87.50;;;;;;5034286;28;19954;-76
2023/07/22 07:48:38;;;;;;;;;;;17.70;99.90;;;;;;5035754;28;19939;-77
2023/07/22 07:51:03;;;;;;;;;;;17.70;92.50;;;;;;5002891;28;19924;-77
2023/07/22 07:53:29;;;;;;;;;;;17.70;99.90;;;;;;5038343;28;19937;-75
2023/07/22 07:55:54;;;;;;;;;;;17.70;99.90;;;;;;5039561;28;19925;-76
2023/07/22 07:58:20;;;;;;;;;;;17.70;99.90;;;;;;5037225;28;19936;-77
2023/07/22 08:00:45;;;;;;;;;;;17.60;1.00;;;;;;5037920;28;20023;-76
2023/07/22 08:03:15;;;;;;;;;;;17.60;9.80;;;;;;5035340;28;19929;-73
2023/07/22 08:05:41;;;;;;;;;;;17.60;99.90;;;;;;5036553;28;19935;-78
2023/07/22 08:08:07;;;;;;;;;;;17.60;99.90;;;;;;5036476;28;19933;-79
2023/07/22 08:10:32;;;;;;;;;;;17.60;99.90;;;;;;5034506;28;19995;-79
2023/07/22 08:12:58;;;;;;;;;;;17.60;99.90;;;;;;5036035;28;20278;-78
2023/07/22 08:15:24;;;;;;;;;;;17.70;99.90;;;;;;5018986;28;19929;-78
2023/07/22 08:17:49;;;;;;;;;;;17.70;1.00;;;;;;5019890;28;19931;-77
2023/07/22 08:20:15;;;;;;;;;;;17.60;1.00;;;;;;5036289;28;19928;-77
2023/07/22 08:22:40;;;;;;;;;;;17.60;1.00;;;;;;5032688;28;20003;-77
2023/07/22 08:25:07;;;;;;;;;;;17.60;1.00;;;;;;5035059;28;19974;-77
2023/07/22 08:27:33;;;;;;;;;;;17.60;1.00;;;;;;5035309;28;20564;-76
2023/07/22 08:29:58;;;;;;;;;;;17.60;1.00;;;;;;5036284;28;19925;-77
2023/07/22 08:32:24;;;;;;;;;;;17.50;1.00;;;;;;5033821;28;19929;-76
2023/07/22 08:34:49;;;;;;;;;;;17.50;1.00;;;;;;5016836;28;20015;-77
2023/07/22 08:37:15;;;;;;;;;;;17.40;1.00;;;;;;5034926;28;19959;-78
2023/07/22 08:39:41;;;;;;;;;;;17.50;1.00;;;;;;5033281;28;20387;-75
2023/07/22 08:42:07;;;;;;;;;;;17.40;1.00;;;;;;5034245;28;19933;-78
2023/07/22 08:44:35;;;;;;;;;;;17.40;1.00;;;;;;5034945;28;19972;-81
2023/07/22 08:47:03;;;;;;;;;;;17.50;1.00;;;;;;5032490;28;19929;-83
2023/07/22 08:49:32;;;;;;;;;;;17.60;1.00;;;;;;5054468;28;21126;-77
2023/07/22 08:51:59;;;;;;;;;;;17.60;1.00;;;;;;5054192;28;19940;-80
2023/07/22 08:54:24;;;;;;;;;;;17.50;1.00;;;;;;5053386;28;19978;-81
2023/07/22 08:56:51;;;;;;;;;;;17.60;1.00;;;;;;5038528;28;21466;-79
2023/07/22 08:59:20;;;;;;;;;;;18.50;1.00;;;;;;5002134;28;19948;-79
2023/07/22 09:01:47;;;;;;;;;;;17.70;1.00;;;;;;5040928;28;19936;-77
2023/07/22 09:04:13;;;;;;;;;;;17.70;1.00;;;;;;5037911;28;19952;-80
2023/07/22 09:06:39;;;;;;;;;;;17.60;1.00;;;;;;5041178;28;19929;-80
2023/07/22 09:09:07;;;;;;;;;;;17.70;1.00;;;;;;5037163;28;19928;-81
2023/07/22 09:11:33;;;;;;;;;;;17.70;1.00;;;;;;5039721;28;20078;-81
2023/07/22 09:13:59;;;;;;;;;;;17.70;1.00;;;;;;5037636;28;20439;-81
2023/07/22 09:16:32;;;;;;;;;;;17.80;1.00;;;;;;5036433;28;20207;-79
2023/07/22 09:18:58;;;;;;;;;;;17.80;1.00;;;;;;5036042;28;19932;-81
2023/07/22 09:21:24;;;;;;;;;;;17.90;1.00;;;;;;5021665;28;19988;-80
2023/07/22 09:23:50;;;;;;;;;;;17.90;1.00;;;;;;5056761;28;20023;-81
2023/07/22 09:26:17;;;;;;;;;;;17.90;1.00;;;;;;5042244;28;19936;-79
2023/07/22 09:28:49;;;;;;;;;;;17.90;1.00;;;;;;5038556;28;19929;-81
2023/07/22 09:31:14;;;;;;;;;;;17.90;1.00;;;;;;5041625;28;19972;-85
2023/07/22 09:33:40;;;;;;;;;;;17.80;1.00;;;;;;5012648;28;21559;-76
2023/07/22 09:36:06;;;;;;;;;;;17.80;1.00;;;;;;5041531;28;19980;-77
2023/07/22 09:38:31;;;;;;;;;;;17.80;1.00;;;;;;5008445;28;20326;-76
2023/07/22 09:40:57;;;;;;;;;;;17.80;1.00;;;;;;5039026;28;19925;-76
2023/07/22 09:43:23;;;;;;;;;;;17.80;1.00;;;;;;5039637;28;20288;-75
2023/07/22 09:45:49;;;;;;;;;;;17.80;1.00;;;;;;5036048;28;19966;-74
2023/07/22 09:48:15;;;;;;;;;;;17.70;1.00;;;;;;5021940;28;19933;-74
2023/07/22 09:50:41;;;;;;;;;;;17.70;1.00;;;;;;5039956;28;19971;-76
2023/07/22 09:53:06;;;;;;;;;;;17.70;1.00;;;;;;5038647;28;20462;-80
2023/07/22 09:55:32;;;;;;;;;;;17.80;1.00;;;;;;5057257;28;19921;-82
2023/07/22 09:57:58;;;;;;;;;;;17.70;2.20;;;;;;5021898;28;19967;-79
2023/07/22 10:00:25;;;;;;;;;;;17.80;3.80;;;;;;5039817;28;19932;-79
2023/07/22 10:02:51;;;;;;;;;;;17.70;7.20;;;;;;5038408;28;20023;-77
2023/07/22 10:05:18;;;;;;;;;;;17.70;1.00;;;;;;5054854;28;20011;-76
2023/07/22 10:07:45;;;;;;;;;;;17.70;6.70;;;;;;5035654;28;19933;-78
2023/07/22 10:10:12;;;;;;;;;;;17.60;6.80;;;;;;5036833;28;19925;-76
2023/07/22 10:12:41;;;;;;;;;;;17.50;1.00;;;;;;5035627;28;19925;-77
2023/07/22 10:15:07;;;;;;;;;;;17.40;4.70;;;;;;5020745;28;19933;-78
2023/07/22 10:17:34;;;;;;;;;;;17.30;5.30;;;;;;5036427;28;19998;-77
2023/07/22 10:19:59;;;;;;;;;;;17.20;12.80;;;;;;5039701;28;19929;-73
2023/07/22 10:22:26;;;;;;;;;;;17.20;15.00;;;;;;5023169;28;19933;-78
2023/07/22 10:24:52;;;;;;;;;;;17.10;11.50;;;;;;5005839;28;19956;-77
2023/07/22 10:27:18;;;;;;;;;;;17.10;13.30;;;;;;5022223;28;20055;-76
2023/07/22 10:29:45;;;;;;;;;;;16.90;10.10;;;;;;5020802;28;19928;-76
2023/07/22 10:32:11;;;;;;;;;;;16.90;15.70;;;;;;5039204;28;19929;-76
2023/07/22 10:34:37;;;;;;;;;;;16.80;21.00;;;;;;5054066;28;19935;-76
2023/07/22 10:37:04;;;;;;;;;;;16.80;22.60;;;;;;5037728;28;19925;-78
2023/07/22 10:39:30;;;;;;;;;;;16.70;28.60;;;;;;5043857;28;19932;-78
2023/07/22 10:42:05;;;;;;;;;;;16.70;25.30;;;;;;5022600;28;19925;-79
2023/07/22 10:44:40;;;;;;;;;;;16.70;26.40;;;;;;5023599;28;19933;-78
2023/07/22 10:47:07;;;;;;;;;;;16.70;21.50;;;;;;5030922;28;19975;-79
2023/07/22 10:49:43;;;;;;;;;;;16.60;29.10;;;;;;5042779;28;20015;-77
2023/07/22 10:52:11;;;;;;;;;;;16.50;20.20;;;;;;5038824;28;20015;-76
2023/07/22 10:54:36;;;;;;;;;;;16.50;21.30;;;;;;5056800;28;20288;-77
2023/07/22 10:57:03;;;;;;;;;;;16.50;25.80;;;;;;5036809;28;19928;-76
2023/07/22 10:59:32;;;;;;;;;;;16.50;27.30;;;;;;5037468;28;19933;-76
2023/07/22 11:01:57;;;;;;;;;;;16.50;25.70;;;;;;5022767;28;19932;-76
2023/07/22 11:04:30;;;;;;;;;;;16.60;32.20;;;;;;5038447;28;19925;-77
2023/07/22 11:06:57;;;;;;;;;;;16.60;27.70;;;;;;5038303;28;19939;-77
2023/07/22 11:09:26;;;;;;;;;;;16.60;32.40;;;;;;5038450;28;19929;-76
2023/07/22 11:11:53;;;;;;;;;;;16.70;40.30;;;;;;5040450;28;20296;-77
2023/07/22 11:14:22;;;;;;;;;;;16.90;39.50;;;;;;5021039;28;20110;-76
2023/07/22 11:16:48;;;;;;;;;;;17.00;36.00;;;;;;5037542;28;19929;-77
2023/07/22 11:19:14;;;;;;;;;;;17.10;34.90;;;;;;5037503;28;20007;-76
2023/07/22 11:21:40;;;;;;;;;;;17.10;31.30;;;;;;5038465;28;19925;-76
2023/07/22 11:24:07;;;;;;;;;;;17.20;33.90;;;;;;5039813;28;20291;-77
2023/07/22 11:26:32;;;;;;;;;;;17.30;34.00;;;;;;5037132;28;19935;-76
2023/07/22 11:28:59;;;;;;;;;;;17.40;43.40;;;;;;5037469;28;19925;-77
2023/07/22 11:31:36;;;;;;;;;;;17.50;40.30;;;;;;5039523;28;19925;-77
2023/07/22 11:34:02;;;;;;;;;;;17.60;41.30;;;;;;5045511;28;19932;-79
2023/07/22 11:36:28;;;;;;;;;;;17.60;37.80;;;;;;5038667;28;19926;-80
2023/07/22 11:38:54;;;;;;;;;;;17.60;15.70;;;;;;5038552;28;20342;-81
2023/07/22 11:41:20;;;;;;;;;;;17.70;19.60;;;;;;5019202;28;20261;-77
2023/07/22 11:43:46;;;;;;;;;;;17.60;8.20;;;;;;5019691;28;19959;-77
2023/07/22 11:46:11;;;;;;;;;;;17.60;11.80;;;;;;5035511;28;20344;-78
2023/07/22 11:48:37;;;;;;;;;;;17.60;20.20;;;;;;5004005;28;19939;-77
2023/07/22 11:51:02;;;;;;;;;;;17.50;7.10;;;;;;5031753;28;20277;-78
2023/07/22 11:53:28;;;;;;;;;;;17.50;9.70;;;;;;5021996;28;19972;-79
2023/07/22 11:55:57;;;;;;;;;;;17.40;7.00;;;;;;5037274;28;20352;-79
2023/07/22 11:58:26;;;;;;;;;;;17.30;23.70;;;;;;5037727;28;19933;-79
2023/07/22 12:01:04;;;;;;;;;;;17.10;14.30;;;;;;5035819;28;20019;-80
2023/07/22 12:03:31;;;;;;;;;;;17.10;16.00;;;;;;5031820;28;20790;-80
2023/07/22 12:06:00;;;;;;;;;;;16.90;18.80;;;;;;5032264;28;19985;-81
2023/07/22 12:08:25;;;;;;;;;;;16.80;21.10;;;;;;5017681;28;19952;-79
2023/07/22 12:11:00;;;;;;;;;;;16.80;25.20;;;;;;5032808;28;19925;-80
2023/07/22 12:13:25;;;;;;;;;;;16.80;20.20;;;;;;5020206;28;19933;-79
2023/07/22 12:16:01;;;;;;;;;;;16.90;22.20;;;;;;5020381;28;20005;-79
2023/07/22 12:18:26;;;;;;;;;;;16.90;18.80;;;;;;5034238;28;19929;-81
2023/07/22 12:20:52;;;;;;;;;;;16.90;21.50;;;;;;5036804;28;20304;-78
2023/07/22 12:23:18;;;;;;;;;;;16.80;21.00;;;;;;5038445;28;20709;-80
2023/07/22 12:25:44;;;;;;;;;;;16.80;29.10;;;;;;5035695;28;19929;-80
2023/07/22 12:28:10;;;;;;;;;;;16.80;27.70;;;;;;5037053;28;19936;-79
2023/07/22 12:30:36;;;;;;;;;;;16.80;27.90;;;;;;5036756;28;20647;-79
2023/07/22 12:33:02;;;;;;;;;;;16.80;33.10;;;;;;5037277;28;19960;-79
2023/07/22 12:35:28;;;;;;;;;;;16.80;29.40;;;;;;5037069;28;20319;-78
2023/07/22 12:37:53;;;;;;;;;;;16.80;29.80;;;;;;5037987;28;19929;-83
2023/07/22 12:40:20;;;;;;;;;;;16.70;25.30;;;;;;5001273;28;20386;-85
2023/07/22 12:42:46;;;;;;;;;;;16.70;28.10;;;;;;5038753;28;21288;-81
2023/07/22 12:45:12;;;;;;;;;;;16.60;26.70;;;;;;5024453;28;20437;-74
2023/07/22 12:47:38;;;;;;;;;;;16.50;25.90;;;;;;5035783;28;20384;-77
2023/07/22 12:50:04;;;;;;;;;;;16.40;27.20;;;;;;5036757;28;19925;-78
2023/07/22 12:52:29;;;;;;;;;;;16.30;26.10;;;;;;5035408;28;19928;-76
2023/07/22 12:54:55;;;;;;;;;;;16.20;25.60;;;;;;5037078;28;19929;-78
2023/07/22 12:57:21;;;;;;;;;;;16.30;29.20;;;;;;5036238;28;19929;-77
2023/07/22 12:59:46;;;;;;;;;;;16.30;31.30;;;;;;5036361;28;19933;-78
2023/07/22 13:02:12;;;;;;;;;;;16.40;36.30;;;;;;5020219;28;20055;-78
2023/07/22 13:04:38;;;;;;;;;;;16.50;36.60;;;;;;5036729;28;20076;-79
2023/07/22 13:07:03;;;;;;;;;;;16.60;39.30;;;;;;5034422;28;19928;-78
2023/07/22 13:09:29;;;;;;;;;;;16.70;34.00;;;;;;5019451;28;20447;-79
2023/07/22 13:11:55;;;;;;;;;;;16.80;27.00;;;;;;5035941;28;19929;-78
2023/07/22 13:14:20;;;;;;;;;;;16.90;29.30;;;;;;5037036;28;20285;-79
2023/07/22 13:16:46;;;;;;;;;;;17.00;26.90;;;;;;5019884;28;19933;-78
2023/07/22 13:19:12;;;;;;;;;;;17.10;22.90;;;;;;5019852;28;19979;-79
2023/07/22 13:21:37;;;;;;;;;;;17.10;18.80;;;;;;5036300;28;19955;-78
2023/07/22 13:24:03;;;;;;;;;;;17.10;19.00;;;;;;5036102;28;19924;-78
2023/07/22 13:26:29;;;;;;;;;;;17.10;18.30;;;;;;5035871;28;19929;-78
2023/07/22 13:28:54;;;;;;;;;;;17.00;12.60;;;;;;5036307;28;19927;-77
2023/07/22 13:31:20;;;;;;;;;;;16.90;7.10;;;;;;5035361;28;20700;-76
2023/07/22 13:33:45;;;;;;;;;;;16.90;12.70;;;;;;5041121;28;19979;-83
2023/07/22 13:36:11;;;;;;;;;;;16.70;24.00;;;;;;5019874;28;19929;-83
2023/07/22 13:38:37;;;;;;;;;;;16.70;21.20;;;;;;5036871;28;19936;-81
2023/07/22 13:41:02;;;;;;;;;;;16.80;20.60;;;;;;5024019;28;19954;-85
2023/07/22 13:43:29;;;;;;;;;;;16.80;20.50;;;;;;5037362;28;19933;-78
2023/07/22 13:45:54;;;;;;;;;;;16.80;23.00;;;;;;5037972;28;19931;-78
2023/07/22 13:48:20;;;;;;;;;;;16.90;28.10;;;;;;5036245;28;19928;-78
2023/07/22 13:50:45;;;;;;;;;;;16.80;17.60;;;;;;5033549;28;19928;-81
2023/07/22 13:53:11;;;;;;;;;;;16.90;19.20;;;;;;5032711;28;20396;-81
2023/07/22 13:55:37;;;;;;;;;;;16.90;21.80;;;;;;5035487;28;19928;-83
2023/07/22 13:58:02;;;;;;;;;;;17.00;24.00;;;;;;5034352;28;20380;-83
2023/07/22 14:00:28;;;;;;;;;;;17.00;25.20;;;;;;5036169;28;20419;-79
2023/07/22 14:02:54;;;;;;;;;;;17.00;21.90;;;;;;5036863;28;19936;-80
2023/07/22 14:05:19;;;;;;;;;;;17.00;20.40;;;;;;5037075;28;20295;-84
2023/07/22 14:07:45;;;;;;;;;;;17.00;21.10;;;;;;5018006;28;19939;-77
2023/07/22 14:10:11;;;;;;;;;;;17.10;20.40;;;;;;5023598;28;19940;-84
2023/07/22 14:12:36;;;;;;;;;;;17.10;15.80;;;;;;5040377;28;19933;-81
2023/07/22 14:15:04;;;;;;;;;;;17.10;15.40;;;;;;5040121;28;20030;-77
2023/07/22 14:17:32;;;;;;;;;;;17.30;19.10;;;;;;5032324;28;20421;-77